Ana Sayfa
METAR-TAF:

METAR-TAF

Havaalanları :

Pittsburg, Kansas, Amerika Birleşik Devletleri

Enlem: 37-26-58N, Boylam: 094-43-52W, yükseklik: 290 m

Güncel hava durumu gözlemi

Rapor saat 00:15 UTC de 18 dakika önce yapıldı.
Sakin rüzgar
Sıcaklık 25°C
Nem 57%
Basınç 1018 hPa
Görüş mesafesi: 16.1 km
Açık gökyüzü

METAR: KPTS 290015Z AUTO 00000KT 10SM CLR 25/16 A3007 RMK AO2 T02480157 PWINO

Saat: 19:33 (00:33 UTC)


TAF: eksik

4.000'den fazla havaalanı için hava durumu gözlemleri ve tahminleri (METAR ve TAF raporları).

Kullanılabilir istasyonlar harita üzerinde sarı ve kırmızı noktalarla gösterilir.

İstasyonun adını görmek için fareyi noktanın üzerinde gezdirin.

Sonrasında hava gözlem ve tahminlerini görmek için tıklayın.

Haritayı değiştirmek için: yaklaştırmak için siyah artı işaretli yeşil düğmeye ve uzaklaştırmak için de eksi işaretli düğmeye hızla tıklayın; bitişik haritalar için yeşil okları kullanın.


METAR-TAF: